St Mary's Airport St Mary's US
ICAO: PASM
IATA:
Category: Medium
Scheduled Services:

Elevation: 312 ft
TransAlt. 18000 ft.

Airport Communications:
AWOS 3:128.7
ANCHORAGE CNTR:124
CTAF:122.3
KENAI RDO:122.35
TWEB:23

PASM Zoom In..

If you have problems with the map follow the link
https://www.worldairports.se/pages/airport.php?
ICAO=PASM

Runways:

(A) RW 06 length 1520 ft width 60 ft
LOC 109.10 / hdg 62

(B) RW 17 length 6008 ft width 150 ft
LOC 109.10 / hdg 170

(C) RW 24 length 1520 ft width 60 ft
LOC 109.10 / hdg 242

(D) RW 35 length 6008 ft width 150 ft
LOC 109.10 / hdg 350

Location; PASM
Day. 10 / Time. 02.02 Zulu
* Altimeter: 28.71
* Temperature: 01° c. 33.8°f.
* Wind from: 090° Speed 19 kn with Gusts up to 25 kn.
Dewpoint: -01° c.
Visibility: 10 Statute Miles.
Clouds: Clear (automated report).

PASM 100202Z AUTO 09019G25KT 10SM CLR 01/M01 A2871 RMK AO2 PK WND 09026/0151 SLP730 T00111011 FZRANO


Wind From 090°
Speed 19 kn.

 
 
jpsmedia worldairports.se 2019   terms of use